Time;durP1;ratioP1;P1;durP2;ratioP2;P2;SDS_P1;SDS_P2;PMS_P1;PMS_P2;Temp;Humidity;BMP_temperature;BMP_pressure;BME280_temperature;BME280_humidity;BME280_pressure;Samples;Min_cycle;Max_cycle;Signal;HPM_P1;HPM_P2
2024/01/24 00:02:02;;;;;;;;;0.00;0.00;;;;;;;;5091625;28;61684;-76
2024/01/24 00:04:28;;;;;;;;;0.00;0.00;;;;;;;;5084221;28;61748;-76
2024/01/24 00:06:53;;;;;;;;;0.00;0.00;;;;;;;;5084229;27;62026;-76
2024/01/24 00:09:18;;;;;;;;;0.00;0.00;;;;;;;;5084149;28;61625;-76
2024/01/24 00:11:43;;;;;;;;;0.00;0.00;;;;;;;;5084219;28;61827;-76
2024/01/24 00:14:10;;;;;;;;;0.00;0.00;;;;;;;;5103145;27;63237;-76
2024/01/24 00:16:35;;;;;;;;;0.00;0.00;;;;;;;;5104041;27;61652;-76
2024/01/24 00:19:00;;;;;;;;;0.00;0.00;;;;;;;;5085494;27;61779;-76
2024/01/24 00:21:26;;;;;;;;;0.00;0.00;;;;;;;;5088739;27;61695;-76
2024/01/24 00:23:51;;;;;;;;;0.00;0.00;;;;;;;;5092863;27;62014;-76
2024/01/24 00:26:16;;;;;;;;;0.00;0.00;;;;;;;;5085742;27;61755;-76
2024/01/24 00:28:41;;;;;;;;;0.00;0.00;;;;;;;;5110245;27;61729;-76
2024/01/24 00:31:06;;;;;;;;;0.00;0.00;;;;;;;;5119948;27;37851;-76
2024/01/24 00:33:32;;;;;;;;;0.00;0.00;;;;;;;;5106953;27;61965;-76
2024/01/24 00:35:57;;;;;;;;;0.00;0.00;;;;;;;;5102712;27;62165;-76
2024/01/24 00:38:22;;;;;;;;;0.00;0.00;;;;;;;;5103616;27;61985;-76
2024/01/24 00:40:47;;;;;;;;;0.00;0.00;;;;;;;;5103634;27;62034;-76
2024/01/24 00:43:13;;;;;;;;;0.00;0.00;;;;;;;;5102582;27;62820;-76
2024/01/24 00:45:38;;;;;;;;;0.25;0.00;;;;;;;;5103359;27;61885;-76
2024/01/24 00:48:03;;;;;;;;;0.00;0.00;;;;;;;;5094999;27;61988;-76
2024/01/24 00:50:28;;;;;;;;;1.75;0.00;;;;;;;;5065001;28;61772;-76
2024/01/24 00:52:55;;;;;;;;;0.00;0.00;;;;;;;;5082516;27;62898;-76
2024/01/24 00:55:20;;;;;;;;;0.00;0.00;;;;;;;;5084297;28;61734;-76
2024/01/24 00:57:46;;;;;;;;;0.00;0.00;;;;;;;;5084826;27;61883;-77
2024/01/24 01:00:11;;;;;;;;;0.00;0.00;;;;;;;;5103702;27;61760;-76
2024/01/24 01:02:37;;;;;;;;;0.75;0.00;;;;;;;;5084350;27;64721;-76
2024/01/24 01:05:04;;;;;;;;;0.00;0.00;;;;;;;;5103300;27;61603;-76
2024/01/24 01:07:29;;;;;;;;;0.00;0.00;;;;;;;;5085702;27;61886;-76
2024/01/24 01:09:54;;;;;;;;;0.00;0.00;;;;;;;;5064751;28;61812;-76
2024/01/24 01:12:19;;;;;;;;;0.00;0.00;;;;;;;;5069867;27;64000;-76
2024/01/24 01:14:44;;;;;;;;;0.00;0.00;;;;;;;;5103043;27;61671;-76
2024/01/24 01:17:10;;;;;;;;;0.00;0.00;;;;;;;;5103089;27;61638;-76
2024/01/24 01:19:35;;;;;;;;;0.00;0.00;;;;;;;;5103480;27;61717;-76
2024/01/24 01:22:00;;;;;;;;;0.00;0.00;;;;;;;;5099626;27;62121;-76
2024/01/24 01:24:25;;;;;;;;;0.00;0.00;;;;;;;;5083654;28;62136;-76
2024/01/24 01:26:50;;;;;;;;;0.00;0.00;;;;;;;;5082943;28;61801;-76
2024/01/24 01:29:16;;;;;;;;;0.00;0.00;;;;;;;;5083731;28;62187;-76
2024/01/24 01:31:41;;;;;;;;;0.00;0.00;;;;;;;;5095173;27;61746;-76
2024/01/24 01:34:06;;;;;;;;;0.00;0.00;;;;;;;;5084919;27;62185;-76
2024/01/24 01:36:31;;;;;;;;;0.00;0.00;;;;;;;;5102765;27;61987;-76
2024/01/24 01:38:57;;;;;;;;;0.00;0.00;;;;;;;;5084752;27;61761;-76
2024/01/24 01:41:22;;;;;;;;;0.00;0.00;;;;;;;;5102212;27;62761;-76
2024/01/24 01:43:47;;;;;;;;;0.00;0.00;;;;;;;;5102796;27;61974;-76
2024/01/24 01:46:18;;;;;;;;;0.00;0.00;;;;;;;;5102972;27;61903;-76
2024/01/24 01:48:44;;;;;;;;;0.00;0.00;;;;;;;;5103080;27;61635;-76
2024/01/24 01:51:09;;;;;;;;;0.00;0.00;;;;;;;;5083330;27;64864;-76
2024/01/24 01:53:38;;;;;;;;;0.00;0.00;;;;;;;;5103049;27;61785;-76
2024/01/24 01:56:06;;;;;;;;;0.00;0.00;;;;;;;;5084674;27;62030;-75
2024/01/24 01:58:31;;;;;;;;;0.00;0.00;;;;;;;;5102330;27;61791;-76
2024/01/24 02:00:57;;;;;;;;;0.00;0.00;;;;;;;;5101611;27;61900;-76
2024/01/24 02:03:22;;;;;;;;;0.00;0.00;;;;;;;;5083982;27;61900;-76
2024/01/24 02:05:47;;;;;;;;;0.00;0.00;;;;;;;;5102488;27;61942;-76
2024/01/24 02:08:12;;;;;;;;;0.00;0.00;;;;;;;;5084607;27;61907;-76
2024/01/24 02:10:38;;;;;;;;;0.00;0.00;;;;;;;;5083386;27;63689;-76
2024/01/24 02:13:05;;;;;;;;;0.00;0.00;;;;;;;;5083923;27;61961;-76
2024/01/24 02:15:31;;;;;;;;;0.00;0.00;;;;;;;;5102528;27;61745;-76
2024/01/24 02:17:56;;;;;;;;;0.00;0.00;;;;;;;;5102963;27;61764;-76
2024/01/24 02:20:22;;;;;;;;;0.00;0.00;;;;;;;;5083148;27;64611;-76
2024/01/24 02:22:47;;;;;;;;;0.00;0.00;;;;;;;;5102874;27;62024;-76
2024/01/24 02:25:12;;;;;;;;;0.00;0.00;;;;;;;;5087894;27;61943;-76
2024/01/24 02:27:38;;;;;;;;;0.00;0.00;;;;;;;;5102240;27;62131;-76
2024/01/24 02:30:04;;;;;;;;;0.00;0.00;;;;;;;;5082853;27;62512;-76
2024/01/24 02:32:30;;;;;;;;;0.00;0.00;;;;;;;;5081503;27;61936;-76
2024/01/24 02:34:55;;;;;;;;;0.00;0.00;;;;;;;;5085204;27;61925;-76
2024/01/24 02:37:20;;;;;;;;;0.00;0.00;;;;;;;;5104388;27;62036;-76
2024/01/24 02:39:46;;;;;;;;;0.00;0.00;;;;;;;;5094302;27;61793;-76
2024/01/24 02:42:12;;;;;;;;;0.00;0.00;;;;;;;;5083940;28;61929;-76
2024/01/24 02:44:37;;;;;;;;;0.00;0.00;;;;;;;;5088446;27;61840;-76
2024/01/24 02:47:02;;;;;;;;;0.00;0.00;;;;;;;;5105196;27;61738;-76
2024/01/24 02:49:28;;;;;;;;;0.50;0.00;;;;;;;;5104068;27;62942;-76
2024/01/24 02:51:53;;;;;;;;;0.00;0.00;;;;;;;;5117814;27;61310;-74
2024/01/24 02:54:18;;;;;;;;;0.00;0.00;;;;;;;;5101140;27;61837;-74
2024/01/24 02:56:44;;;;;;;;;0.00;0.00;;;;;;;;5105809;27;61697;-73
2024/01/24 02:59:10;;;;;;;;;0.00;0.00;;;;;;;;5102665;27;64649;-74
2024/01/24 03:01:35;;;;;;;;;0.00;0.00;;;;;;;;5097279;27;61665;-76
2024/01/24 03:04:01;;;;;;;;;0.00;0.00;;;;;;;;5083872;28;61697;-76
2024/01/24 03:06:26;;;;;;;;;0.00;0.00;;;;;;;;5083814;28;62936;-76
2024/01/24 03:08:56;;;;;;;;;0.00;0.00;;;;;;;;5083608;28;61749;-76
2024/01/24 03:11:21;;;;;;;;;0.00;0.00;;;;;;;;5083721;28;62030;-76
2024/01/24 03:13:47;;;;;;;;;0.00;0.00;;;;;;;;5083756;28;61866;-76
2024/01/24 03:16:12;;;;;;;;;0.00;0.00;;;;;;;;5084036;28;61873;-76
2024/01/24 03:18:38;;;;;;;;;0.00;0.00;;;;;;;;5082959;28;61939;-76
2024/01/24 03:21:05;;;;;;;;;0.00;0.00;;;;;;;;5083362;28;61975;-76
2024/01/24 03:23:30;;;;;;;;;0.00;0.00;;;;;;;;5065611;28;61883;-76
2024/01/24 03:25:56;;;;;;;;;0.00;0.00;;;;;;;;5083400;28;61841;-76
2024/01/24 03:28:21;;;;;;;;;0.00;0.00;;;;;;;;5082970;28;62506;-76
2024/01/24 03:33:00;;;;;;;;;0.00;0.00;;;;;;;;5117478;27;61760;-75
2024/01/24 03:35:26;;;;;;;;;0.00;0.00;;;;;;;;5120131;27;61658;-75
2024/01/24 03:37:51;;;;;;;;;0.00;0.00;;;;;;;;5118052;27;62076;-75
2024/01/24 03:40:16;;;;;;;;;0.00;0.00;;;;;;;;5119096;27;62813;-75
2024/01/24 03:42:42;;;;;;;;;0.00;0.00;;;;;;;;5119578;27;61697;-75
2024/01/24 03:45:07;;;;;;;;;0.00;0.00;;;;;;;;5118444;27;61919;-75
2024/01/24 03:47:32;;;;;;;;;0.00;0.00;;;;;;;;5120059;27;61793;-75
2024/01/24 03:49:57;;;;;;;;;0.00;0.00;;;;;;;;5119027;27;61954;-75
2024/01/24 03:52:23;;;;;;;;;0.00;0.00;;;;;;;;5119262;27;61681;-75
2024/01/24 03:54:48;;;;;;;;;0.00;0.00;;;;;;;;5119468;27;62167;-75
2024/01/24 03:57:13;;;;;;;;;0.00;0.00;;;;;;;;5120006;27;61881;-75
2024/01/24 03:59:38;;;;;;;;;0.00;0.00;;;;;;;;5118565;27;61934;-75
2024/01/24 04:02:04;;;;;;;;;0.00;0.00;;;;;;;;5119571;27;62019;-76
2024/01/24 04:04:29;;;;;;;;;0.00;0.00;;;;;;;;5118064;27;61933;-75
2024/01/24 04:06:55;;;;;;;;;0.00;0.00;;;;;;;;5118186;27;61966;-75
2024/01/24 04:09:21;;;;;;;;;0.00;0.00;;;;;;;;5118470;27;62951;-75
2024/01/24 04:11:46;;;;;;;;;0.00;0.00;;;;;;;;5119083;27;62048;-75
2024/01/24 04:14:11;;;;;;;;;0.00;0.00;;;;;;;;5118107;27;61929;-75
2024/01/24 04:16:39;;;;;;;;;0.00;0.00;;;;;;;;5119488;27;61867;-75
2024/01/24 04:19:05;;;;;;;;;0.00;0.00;;;;;;;;5118423;27;61864;-75
2024/01/24 04:21:30;;;;;;;;;0.00;0.00;;;;;;;;5119048;27;61936;-75
2024/01/24 04:23:55;;;;;;;;;0.00;0.00;;;;;;;;5118873;27;61908;-75
2024/01/24 04:26:21;;;;;;;;;0.00;0.00;;;;;;;;5119471;27;62008;-75
2024/01/24 04:28:46;;;;;;;;;0.00;0.00;;;;;;;;5118438;27;61825;-75
2024/01/24 04:31:11;;;;;;;;;0.00;0.00;;;;;;;;5118207;27;61973;-75
2024/01/24 04:33:37;;;;;;;;;0.00;0.00;;;;;;;;5119216;27;61788;-75
2024/01/24 04:36:02;;;;;;;;;0.00;0.00;;;;;;;;5118787;27;61912;-75
2024/01/24 04:38:27;;;;;;;;;0.00;0.00;;;;;;;;5118364;27;61980;-75
2024/01/24 04:40:52;;;;;;;;;0.00;0.00;;;;;;;;5118769;27;62064;-75
2024/01/24 04:43:19;;;;;;;;;0.00;0.00;;;;;;;;5110064;27;61818;-75
2024/01/24 04:45:44;;;;;;;;;0.00;0.00;;;;;;;;5105276;27;62136;-75
2024/01/24 04:48:10;;;;;;;;;0.00;0.00;;;;;;;;5103112;27;64657;-75
2024/01/24 04:50:35;;;;;;;;;0.00;0.00;;;;;;;;5105080;27;61898;-75
2024/01/24 04:53:00;;;;;;;;;0.00;0.00;;;;;;;;5102962;27;61829;-75
2024/01/24 04:55:25;;;;;;;;;0.25;0.00;;;;;;;;5105455;27;61949;-75
2024/01/24 04:57:51;;;;;;;;;0.00;0.00;;;;;;;;5104037;27;63047;-75
2024/01/24 05:00:16;;;;;;;;;0.00;0.00;;;;;;;;5104747;27;61732;-75
2024/01/24 05:02:41;;;;;;;;;0.00;0.00;;;;;;;;5120864;27;62716;-75
2024/01/24 05:05:07;;;;;;;;;0.00;0.00;;;;;;;;5125499;27;61774;-75
2024/01/24 05:07:34;;;;;;;;;0.00;0.00;;;;;;;;5124426;27;62089;-75
2024/01/24 05:09:59;;;;;;;;;0.00;0.00;;;;;;;;5123711;27;61819;-75
2024/01/24 05:12:24;;;;;;;;;1.00;0.00;;;;;;;;5125636;27;61861;-75
2024/01/24 05:14:49;;;;;;;;;0.00;0.00;;;;;;;;5125690;27;61837;-75
2024/01/24 05:17:15;;;;;;;;;0.00;0.00;;;;;;;;5124830;27;61766;-75
2024/01/24 05:19:40;;;;;;;;;0.00;0.00;;;;;;;;5125317;27;61907;-75
2024/01/24 05:22:05;;;;;;;;;0.00;0.00;;;;;;;;5123213;27;62110;-75
2024/01/24 05:24:30;;;;;;;;;1.00;0.00;;;;;;;;5125473;27;61858;-75
2024/01/24 05:26:56;;;;;;;;;0.00;0.00;;;;;;;;5124438;27;63173;-76
2024/01/24 05:29:22;;;;;;;;;0.00;0.00;;;;;;;;5108369;27;61899;-75
2024/01/24 05:31:47;;;;;;;;;0.00;0.00;;;;;;;;5102458;27;61972;-75
2024/01/24 05:34:13;;;;;;;;;0.00;0.00;;;;;;;;5104647;27;61861;-75
2024/01/24 05:36:39;;;;;;;;;0.00;0.00;;;;;;;;5082684;28;61940;-75
2024/01/24 05:39:06;;;;;;;;;0.00;0.00;;;;;;;;5083479;28;61765;-75
2024/01/24 05:41:32;;;;;;;;;0.00;0.00;;;;;;;;5083709;28;61874;-76
2024/01/24 05:43:57;;;;;;;;;0.00;0.00;;;;;;;;5082351;28;62096;-75
2024/01/24 05:46:22;;;;;;;;;0.00;0.00;;;;;;;;5083369;28;61982;-75
2024/01/24 05:48:47;;;;;;;;;1.00;0.00;;;;;;;;5082466;28;61955;-75
2024/01/24 05:51:12;;;;;;;;;0.00;0.00;;;;;;;;5098639;27;61752;-75
2024/01/24 05:53:39;;;;;;;;;0.00;0.00;;;;;;;;5104303;27;61710;-75
2024/01/24 05:56:05;;;;;;;;;0.00;0.00;;;;;;;;5102188;27;62095;-75
2024/01/24 05:58:30;;;;;;;;;0.00;0.00;;;;;;;;5103921;27;61841;-75
2024/01/24 06:00:55;;;;;;;;;0.50;0.00;;;;;;;;5105011;27;61688;-75
2024/01/24 06:03:20;;;;;;;;;0.00;0.00;;;;;;;;5123468;27;62417;-77
2024/01/24 06:05:45;;;;;;;;;0.00;0.00;;;;;;;;5123478;27;61998;-77
2024/01/24 06:08:11;;;;;;;;;0.00;0.00;;;;;;;;5119222;27;62112;-77
2024/01/24 06:10:36;;;;;;;;;0.00;0.00;;;;;;;;5103771;27;61973;-77
2024/01/24 06:13:01;;;;;;;;;0.00;0.00;;;;;;;;5103743;27;62219;-77
2024/01/24 06:15:27;;;;;;;;;0.00;0.00;;;;;;;;5102917;27;61915;-76
2024/01/24 06:17:52;;;;;;;;;0.00;0.00;;;;;;;;5101982;27;61966;-76
2024/01/24 06:20:18;;;;;;;;;0.00;0.00;;;;;;;;5102060;27;61891;-76
2024/01/24 06:22:45;;;;;;;;;0.00;0.00;;;;;;;;5103117;27;61828;-75
2024/01/24 06:25:10;;;;;;;;;0.00;0.00;;;;;;;;5105325;27;61759;-77
2024/01/24 06:27:36;;;;;;;;;1.00;0.00;;;;;;;;5101657;27;61713;-77
2024/01/24 06:30:01;;;;;;;;;0.00;0.00;;;;;;;;5100704;27;61858;-78
2024/01/24 06:32:26;;;;;;;;;0.00;0.00;;;;;;;;5100567;27;61981;-75
2024/01/24 06:34:51;;;;;;;;;0.00;0.00;;;;;;;;5100964;27;62779;-77
2024/01/24 06:37:16;;;;;;;;;0.00;0.00;;;;;;;;5102415;27;62287;-77
2024/01/24 06:39:42;;;;;;;;;0.00;0.00;;;;;;;;5103257;27;61991;-77
2024/01/24 06:42:07;;;;;;;;;1.00;1.00;;;;;;;;5103030;27;61876;-77
2024/01/24 06:44:32;;;;;;;;;0.00;0.00;;;;;;;;5102057;27;62920;-77
2024/01/24 06:46:58;;;;;;;;;1.00;0.00;;;;;;;;5102321;27;61811;-75
2024/01/24 06:49:25;;;;;;;;;0.00;0.00;;;;;;;;5102412;27;61759;-75
2024/01/24 06:51:50;;;;;;;;;0.00;0.00;;;;;;;;5099133;27;61825;-76
2024/01/24 06:54:16;;;;;;;;;0.50;0.00;;;;;;;;5101877;27;62884;-76
2024/01/24 06:56:41;;;;;;;;;0.50;0.00;;;;;;;;5100964;27;62129;-76
2024/01/24 06:59:06;;;;;;;;;0.00;0.00;;;;;;;;5102295;27;62125;-76
2024/01/24 07:01:31;;;;;;;;;2.50;0.75;;;;;;;;5101505;27;61768;-76
2024/01/24 07:03:57;;;;;;;;;0.00;0.00;;;;;;;;5101792;27;62700;-76
2024/01/24 07:06:23;;;;;;;;;0.50;0.25;;;;;;;;5097320;27;61816;-75
2024/01/24 07:08:48;;;;;;;;;0.00;0.00;;;;;;;;5092657;27;61808;-75
2024/01/24 07:11:13;;;;;;;;;2.50;0.00;;;;;;;;5101217;27;61979;-75
2024/01/24 07:13:39;;;;;;;;;0.25;0.00;;;;;;;;5101236;27;62886;-75
2024/01/24 07:16:04;;;;;;;;;1.00;0.00;;;;;;;;5101730;27;61814;-76
2024/01/24 07:18:31;;;;;;;;;0.00;0.00;;;;;;;;5101387;27;61824;-75
2024/01/24 07:20:57;;;;;;;;;0.00;0.00;;;;;;;;5100639;27;61798;-75
2024/01/24 07:23:22;;;;;;;;;0.00;0.00;;;;;;;;5099879;27;63585;-75
2024/01/24 07:25:47;;;;;;;;;1.00;1.00;;;;;;;;5102252;27;61918;-75
2024/01/24 07:28:12;;;;;;;;;0.00;0.00;;;;;;;;5100746;27;61778;-75
2024/01/24 07:30:37;;;;;;;;;1.00;0.00;;;;;;;;5100340;27;62177;-75
2024/01/24 07:33:05;;;;;;;;;0.00;0.00;;;;;;;;5101234;27;61694;-74
2024/01/24 07:35:30;;;;;;;;;1.50;1.00;;;;;;;;5121981;27;61913;-75
2024/01/24 07:37:55;;;;;;;;;0.00;0.00;;;;;;;;5121411;27;61782;-75
2024/01/24 07:40:21;;;;;;;;;0.00;0.00;;;;;;;;5112881;27;61859;-75
2024/01/24 07:42:47;;;;;;;;;1.25;0.25;;;;;;;;5105274;27;62188;-74
2024/01/24 07:45:13;;;;;;;;;7.25;5.75;;;;;;;;5111813;27;61865;-74
2024/01/24 07:47:38;;;;;;;;;1.75;0.00;;;;;;;;5101586;27;61796;-74
2024/01/24 07:50:04;;;;;;;;;2.00;0.25;;;;;;;;5102144;27;62517;-75
2024/01/24 07:52:29;;;;;;;;;3.75;0.00;;;;;;;;5101087;27;62864;-75
2024/01/24 07:54:54;;;;;;;;;0.00;0.00;;;;;;;;5101841;27;61850;-75
2024/01/24 07:57:20;;;;;;;;;1.50;0.00;;;;;;;;5101379;27;61755;-75
2024/01/24 07:59:45;;;;;;;;;0.50;0.50;;;;;;;;5100887;27;62063;-75
2024/01/24 08:02:10;;;;;;;;;2.00;1.00;;;;;;;;5098891;27;63634;-75
2024/01/24 08:04:35;;;;;;;;;4.50;0.25;;;;;;;;5100103;27;62016;-76
2024/01/24 08:07:00;;;;;;;;;2.75;1.00;;;;;;;;5096276;27;61897;-75
2024/01/24 08:09:26;;;;;;;;;2.00;0.00;;;;;;;;5081491;27;62004;-75
2024/01/24 08:11:51;;;;;;;;;3.75;3.25;;;;;;;;5079128;28;63889;-75
2024/01/24 08:14:16;;;;;;;;;2.00;0.00;;;;;;;;5081211;27;61966;-75
2024/01/24 08:17:01;;;;;;;;;4.75;1.50;;;;;;;;5081022;28;61903;-75
2024/01/24 08:19:26;;;;;;;;;2.75;0.75;;;;;;;;5083044;28;61904;-75
2024/01/24 08:21:51;;;;;;;;;1.75;1.75;;;;;;;;5084173;28;61772;-75
2024/01/24 08:24:16;;;;;;;;;4.00;0.25;;;;;;;;5089788;27;61909;-74
2024/01/24 08:26:42;;;;;;;;;6.25;1.00;;;;;;;;5105515;27;62160;-75
2024/01/24 08:29:07;;;;;;;;;4.50;1.00;;;;;;;;5104513;27;61884;-74
2024/01/24 08:31:32;;;;;;;;;3.00;0.00;;;;;;;;5105095;27;62816;-75
2024/01/24 08:33:57;;;;;;;;;4.50;1.00;;;;;;;;5105811;27;61867;-75
2024/01/24 08:36:22;;;;;;;;;6.00;1.00;;;;;;;;5105327;27;62237;-75
2024/01/24 08:38:48;;;;;;;;;2.00;0.00;;;;;;;;5105324;27;61937;-75
2024/01/24 08:41:14;;;;;;;;;1.75;0.75;;;;;;;;5103508;27;63267;-75
2024/01/24 08:43:39;;;;;;;;;1.00;1.00;;;;;;;;5102883;27;61748;-75
2024/01/24 08:46:04;;;;;;;;;1.00;1.00;;;;;;;;5104228;27;61828;-75
2024/01/24 08:48:29;;;;;;;;;5.50;2.75;;;;;;;;5103062;27;62188;-75
2024/01/24 08:50:55;;;;;;;;;2.50;1.25;;;;;;;;5103054;27;61882;-75
2024/01/24 08:53:20;;;;;;;;;7.00;2.25;;;;;;;;5104021;27;61866;-75
2024/01/24 08:55:45;;;;;;;;;4.50;3.00;;;;;;;;5104374;27;61823;-75
2024/01/24 08:58:11;;;;;;;;;6.75;1.25;;;;;;;;5099250;27;61885;-75
2024/01/24 09:00:36;;;;;;;;;6.50;1.75;;;;;;;;5102623;27;61875;-75
2024/01/24 09:03:01;;;;;;;;;3.75;2.00;;;;;;;;5103817;27;62070;-75
2024/01/24 09:05:27;;;;;;;;;2.50;1.25;;;;;;;;5098990;27;61846;-75
2024/01/24 09:07:53;;;;;;;;;6.25;2.00;;;;;;;;5101601;27;61903;-75
2024/01/24 09:10:18;;;;;;;;;5.25;1.25;;;;;;;;5103032;27;62064;-75
2024/01/24 09:12:43;;;;;;;;;3.50;2.00;;;;;;;;5103767;27;61776;-75
2024/01/24 09:15:08;;;;;;;;;1.00;1.00;;;;;;;;5103490;27;61727;-75
2024/01/24 09:17:35;;;;;;;;;6.75;3.50;;;;;;;;5103881;27;61987;-75
2024/01/24 09:20:00;;;;;;;;;7.25;2.00;;;;;;;;5102874;27;61856;-75
2024/01/24 09:22:26;;;;;;;;;5.00;3.00;;;;;;;;5103129;27;62067;-75
2024/01/24 09:24:51;;;;;;;;;5.25;3.00;;;;;;;;5103922;27;61803;-75
2024/01/24 09:27:16;;;;;;;;;6.25;4.75;;;;;;;;5103641;27;62123;-75
2024/01/24 09:29:41;;;;;;;;;2.00;2.00;;;;;;;;5103119;27;61968;-75
2024/01/24 09:32:06;;;;;;;;;4.00;2.75;;;;;;;;5103422;27;62059;-75
2024/01/24 09:34:32;;;;;;;;;6.25;2.00;;;;;;;;5104292;27;61909;-75
2024/01/24 09:36:57;;;;;;;;;4.75;2.00;;;;;;;;5103855;27;61942;-76
2024/01/24 09:39:25;;;;;;;;;4.50;2.25;;;;;;;;5102805;27;62220;-75
2024/01/24 09:41:51;;;;;;;;;5.00;2.00;;;;;;;;5102695;27;61665;-75
2024/01/24 09:44:17;;;;;;;;;4.50;2.25;;;;;;;;5103724;27;62263;-75
2024/01/24 09:46:42;;;;;;;;;7.25;4.00;;;;;;;;5104225;27;61816;-75
2024/01/24 09:49:15;;;;;;;;;4.00;3.00;;;;;;;;5102688;27;62861;-75
2024/01/24 09:51:42;;;;;;;;;8.00;4.00;;;;;;;;5101869;27;61876;-75
2024/01/24 09:54:07;;;;;;;;;7.25;2.25;;;;;;;;5102344;27;61759;-75
2024/01/24 09:56:34;;;;;;;;;3.75;2.50;;;;;;;;5103662;27;61948;-76
2024/01/24 09:58:59;;;;;;;;;4.00;2.50;;;;;;;;5101816;27;64790;-75
2024/01/24 10:01:26;;;;;;;;;11.25;5.75;;;;;;;;5102648;27;61965;-75
2024/01/24 10:03:52;;;;;;;;;7.50;3.25;;;;;;;;5103920;27;61944;-75
2024/01/24 10:06:17;;;;;;;;;9.25;3.50;;;;;;;;5103324;27;61826;-75
2024/01/24 10:08:43;;;;;;;;;10.00;3.00;;;;;;;;5102811;27;61720;-77
2024/01/24 10:11:09;;;;;;;;;4.50;2.75;;;;;;;;5102765;27;62067;-77
2024/01/24 10:13:36;;;;;;;;;4.00;3.00;;;;;;;;5103289;27;61891;-77
2024/01/24 10:16:04;;;;;;;;;8.00;2.00;;;;;;;;5106451;27;62120;-77
2024/01/24 10:18:29;;;;;;;;;8.75;3.00;;;;;;;;5122977;27;61986;-77
2024/01/24 10:20:55;;;;;;;;;6.25;2.50;;;;;;;;5122450;27;62028;-75
2024/01/24 10:23:20;;;;;;;;;4.75;2.25;;;;;;;;5123201;27;61969;-74
2024/01/24 10:25:46;;;;;;;;;4.75;4.00;;;;;;;;5109747;27;61888;-74
2024/01/24 10:28:12;;;;;;;;;8.25;4.00;;;;;;;;5100590;27;64835;-74
2024/01/24 10:30:39;;;;;;;;;7.75;3.75;;;;;;;;5101889;27;62084;-74
2024/01/24 10:33:04;;;;;;;;;7.75;2.50;;;;;;;;5101891;27;61708;-77
2024/01/24 10:35:29;;;;;;;;;8.00;3.00;;;;;;;;5103154;27;62146;-77
2024/01/24 10:37:55;;;;;;;;;6.75;2.00;;;;;;;;5102730;27;61923;-77
2024/01/24 10:40:21;;;;;;;;;7.00;2.50;;;;;;;;5121093;27;61743;-77
2024/01/24 10:42:49;;;;;;;;;3.00;2.00;;;;;;;;5123593;27;61871;-77
2024/01/24 10:45:15;;;;;;;;;5.00;2.50;;;;;;;;5122613;27;62201;-75
2024/01/24 10:47:41;;;;;;;;;5.00;3.00;;;;;;;;5121779;27;63871;-76
2024/01/24 10:50:09;;;;;;;;;5.75;1.50;;;;;;;;5121963;27;61928;-75
2024/01/24 10:52:37;;;;;;;;;7.75;3.00;;;;;;;;5121236;27;62112;-75
2024/01/24 10:55:05;;;;;;;;;3.50;2.00;;;;;;;;5123470;27;61911;-75
2024/01/24 10:57:32;;;;;;;;;9.75;4.00;;;;;;;;5110898;27;62052;-75
2024/01/24 10:59:57;;;;;;;;;6.50;3.00;;;;;;;;5098924;27;61769;-76
2024/01/24 11:02:23;;;;;;;;;5.50;4.75;;;;;;;;5100339;27;61815;-75
2024/01/24 11:04:49;;;;;;;;;10.25;3.00;;;;;;;;5102166;27;61995;-76
2024/01/24 11:07:19;;;;;;;;;6.75;3.25;;;;;;;;5100858;27;62743;-76
2024/01/24 11:09:54;;;;;;;;;5.00;3.00;;;;;;;;5100637;27;62099;-76
2024/01/24 11:12:22;;;;;;;;;4.50;2.00;;;;;;;;5108584;27;62033;-75
2024/01/24 11:14:47;;;;;;;;;3.00;1.25;;;;;;;;5102523;27;62155;-74
2024/01/24 11:17:12;;;;;;;;;9.75;5.00;;;;;;;;5101988;27;61738;-75
2024/01/24 11:19:38;;;;;;;;;3.75;2.00;;;;;;;;5102276;27;62038;-75
2024/01/24 11:22:10;;;;;;;;;4.50;3.25;;;;;;;;5102034;27;62007;-75
2024/01/24 11:24:38;;;;;;;;;4.00;3.00;;;;;;;;5102096;27;62029;-75
2024/01/24 11:27:03;;;;;;;;;7.75;5.00;;;;;;;;5100848;27;61943;-75
2024/01/24 11:29:35;;;;;;;;;5.25;3.00;;;;;;;;5100150;27;61864;-75
2024/01/24 11:32:01;;;;;;;;;6.25;3.00;;;;;;;;5101288;27;62036;-75
2024/01/24 11:34:29;;;;;;;;;11.00;2.25;;;;;;;;5104149;27;61713;-76
2024/01/24 11:36:55;;;;;;;;;6.75;2.25;;;;;;;;5101209;27;62119;-77
2024/01/24 11:39:39;;;;;;;;;2.00;2.00;;;;;;;;5112563;27;62373;-77
2024/01/24 11:42:23;;;;;;;;;5.00;2.25;;;;;;;;5100528;27;61953;-75
2024/01/24 11:44:48;;;;;;;;;4.00;3.00;;;;;;;;5099655;27;61849;-75
2024/01/24 11:47:14;;;;;;;;;8.50;2.00;;;;;;;;5099424;27;64009;-75
2024/01/24 11:49:39;;;;;;;;;3.75;2.75;;;;;;;;5099921;27;62018;-75
2024/01/24 11:52:04;;;;;;;;;4.50;2.00;;;;;;;;5100567;27;61951;-74
2024/01/24 11:54:30;;;;;;;;;3.25;2.00;;;;;;;;5104652;27;62067;-75
2024/01/24 11:56:57;;;;;;;;;2.25;2.25;;;;;;;;5103026;27;63899;-75
2024/01/24 11:59:22;;;;;;;;;7.00;5.00;;;;;;;;5103241;27;61857;-74
2024/01/24 12:01:47;;;;;;;;;4.25;2.25;;;;;;;;5103198;27;61748;-75
2024/01/24 12:04:13;;;;;;;;;5.50;4.00;;;;;;;;5105362;27;61840;-75
2024/01/24 12:06:38;;;;;;;;;12.50;5.00;;;;;;;;5103161;27;63338;-75
2024/01/24 12:09:04;;;;;;;;;10.25;3.75;;;;;;;;5103268;27;61842;-75
2024/01/24 12:11:29;;;;;;;;;6.25;2.50;;;;;;;;5103800;27;62131;-75
2024/01/24 12:13:54;;;;;;;;;5.00;4.00;;;;;;;;5103281;27;61851;-75
2024/01/24 12:16:20;;;;;;;;;5.50;2.50;;;;;;;;5102814;27;63674;-75
2024/01/24 12:18:45;;;;;;;;;7.00;4.75;;;;;;;;5104628;27;61893;-75
2024/01/24 12:21:10;;;;;;;;;12.50;3.75;;;;;;;;5100337;27;62021;-75
2024/01/24 12:23:35;;;;;;;;;9.00;6.00;;;;;;;;5103571;27;62149;-76
2024/01/24 12:26:01;;;;;;;;;5.75;2.50;;;;;;;;5102343;27;64823;-76
2024/01/24 12:28:26;;;;;;;;;4.50;2.50;;;;;;;;5102822;27;61830;-75
2024/01/24 12:30:52;;;;;;;;;2.50;1.00;;;;;;;;5103795;27;61898;-78
2024/01/24 12:33:18;;;;;;;;;7.00;3.25;;;;;;;;5105218;27;61918;-78
2024/01/24 12:35:44;;;;;;;;;5.25;3.00;;;;;;;;5104094;27;61812;-78
2024/01/24 12:38:11;;;;;;;;;5.50;3.75;;;;;;;;5104332;27;61874;-78
2024/01/24 12:40:36;;;;;;;;;3.25;3.25;;;;;;;;5104902;27;61762;-78
2024/01/24 12:43:02;;;;;;;;;11.00;4.50;;;;;;;;5104487;27;61858;-78
2024/01/24 12:45:28;;;;;;;;;10.25;4.00;;;;;;;;5102989;27;63649;-78
2024/01/24 12:47:53;;;;;;;;;11.75;4.50;;;;;;;;5102600;27;62158;-78
2024/01/24 12:50:20;;;;;;;;;13.00;4.50;;;;;;;;5111902;27;61732;-77
2024/01/24 12:52:46;;;;;;;;;5.25;2.75;;;;;;;;5106489;27;61909;-78
2024/01/24 12:55:11;;;;;;;;;7.00;5.00;;;;;;;;5104367;27;63739;-77
2024/01/24 12:57:36;;;;;;;;;4.50;3.50;;;;;;;;5113444;27;61928;-77
2024/01/24 13:00:05;;;;;;;;;8.50;4.00;;;;;;;;5114531;27;61864;-78
2024/01/24 13:02:31;;;;;;;;;7.00;4.75;;;;;;;;5110609;27;62036;-78
2024/01/24 13:04:56;;;;;;;;;4.75;3.00;;;;;;;;5107866;27;61886;-77
2024/01/24 13:07:21;;;;;;;;;4.50;3.50;;;;;;;;5112548;27;62000;-77
2024/01/24 13:09:47;;;;;;;;;7.25;4.00;;;;;;;;5111018;27;61949;-77
2024/01/24 13:12:12;;;;;;;;;2.00;2.00;;;;;;;;5103065;27;61947;-76
2024/01/24 13:14:37;;;;;;;;;5.00;2.75;;;;;;;;5106968;27;63540;-78
2024/01/24 13:17:03;;;;;;;;;6.25;3.25;;;;;;;;5106931;27;61897;-76
2024/01/24 13:19:29;;;;;;;;;9.00;2.00;;;;;;;;5112948;27;61791;-76
2024/01/24 13:21:55;;;;;;;;;5.75;4.00;;;;;;;;5120717;27;61760;-75
2024/01/24 13:24:21;;;;;;;;;6.00;3.50;;;;;;;;5108980;27;63981;-75
2024/01/24 13:26:46;;;;;;;;;2.33;2.00;;;;;;;;5112959;27;61921;-75
2024/01/24 13:29:15;;;;;;;;;4.75;2.25;;;;;;;;5103101;27;62004;-75
2024/01/24 13:31:41;;;;;;;;;3.50;2.00;;;;;;;;5103335;27;62054;-76
2024/01/24 13:34:06;;;;;;;;;9.75;1.25;;;;;;;;5108891;27;62027;-75
2024/01/24 13:36:31;;;;;;;;;5.00;2.00;;;;;;;;5112107;27;62095;-75
2024/01/24 13:38:58;;;;;;;;;2.00;2.00;;;;;;;;5109408;27;62034;-76
2024/01/24 13:41:24;;;;;;;;;7.00;2.75;;;;;;;;5118244;27;61996;-75
2024/01/24 13:43:49;;;;;;;;;4.00;2.67;;;;;;;;5119337;27;61848;-75
2024/01/24 13:46:15;;;;;;;;;2.67;1.33;;;;;;;;5117672;27;61792;-75
2024/01/24 13:48:40;;;;;;;;;3.33;2.33;;;;;;;;5103478;27;61896;-75
2024/01/24 13:51:07;;;;;;;;;3.33;1.33;;;;;;;;5113737;27;62057;-75
2024/01/24 13:53:33;;;;;;;;;5.33;2.00;;;;;;;;5102102;27;63497;-76
2024/01/24 13:55:58;;;;;;;;;2.00;2.00;;;;;;;;5102757;27;61867;-76
2024/01/24 13:58:25;;;;;;;;;4.67;2.00;;;;;;;;5101898;27;62042;-76
2024/01/24 14:00:50;;;;;;;;;4.00;3.00;;;;;;;;5102171;27;62061;-75
2024/01/24 14:03:15;;;;;;;;;3.75;2.25;;;;;;;;5099492;27;63533;-76
2024/01/24 14:05:40;;;;;;;;;3.00;2.00;;;;;;;;5103437;27;61695;-76
2024/01/24 14:08:06;;;;;;;;;4.67;1.67;;;;;;;;5098269;27;61724;-76
2024/01/24 14:10:31;;;;;;;;;2.75;1.00;;;;;;;;5082561;28;61750;-76
2024/01/24 14:12:56;;;;;;;;;6.50;2.50;;;;;;;;5094301;27;63505;-76
2024/01/24 14:15:22;;;;;;;;;5.00;3.00;;;;;;;;5102040;27;61670;-76
2024/01/24 14:17:47;;;;;;;;;5.25;2.00;;;;;;;;5101496;27;61824;-76
2024/01/24 14:20:12;;;;;;;;;5.25;4.50;;;;;;;;5102516;27;61797;-76
2024/01/24 14:22:37;;;;;;;;;5.25;2.00;;;;;;;;5101329;27;61969;-75
2024/01/24 14:25:05;;;;;;;;;5.00;2.75;;;;;;;;5110279;27;61950;-76
2024/01/24 14:27:30;;;;;;;;;10.75;3.25;;;;;;;;5101056;27;61954;-76
2024/01/24 14:29:55;;;;;;;;;3.00;1.75;;;;;;;;5100012;27;61863;-76
2024/01/24 14:32:20;;;;;;;;;7.50;5.00;;;;;;;;5101260;27;62985;-75
2024/01/24 14:34:46;;;;;;;;;2.00;2.00;;;;;;;;5101306;27;61921;-76
2024/01/24 14:37:11;;;;;;;;;2.75;2.00;;;;;;;;5096245;27;61835;-76